createdAt,value
2018-09-18T00:00:08.248Z,13.79
2018-09-18T00:01:08.203Z,13.71
2018-09-18T00:02:08.161Z,13.79
2018-09-18T00:03:08.119Z,13.82
2018-09-18T00:04:08.067Z,13.83
2018-09-18T00:05:08.028Z,13.82
2018-09-18T00:06:07.988Z,13.89
2018-09-18T00:07:07.935Z,13.82
2018-09-18T00:08:07.892Z,13.86
2018-09-18T00:09:07.849Z,13.85
2018-09-18T00:10:07.802Z,13.89
2018-09-18T00:11:07.755Z,13.87
2018-09-18T00:12:07.715Z,13.86
2018-09-18T00:13:07.668Z,13.94
2018-09-18T00:14:07.626Z,13.97
2018-09-18T00:15:07.581Z,13.91
2018-09-18T00:16:07.540Z,14.03
2018-09-18T00:17:07.491Z,14.04
2018-09-18T00:18:07.448Z,14.07
2018-09-18T00:19:07.402Z,14.19
2018-09-18T00:20:07.366Z,14.22
2018-09-18T00:21:07.313Z,14.31
2018-09-18T00:22:07.272Z,14.28
2018-09-18T00:23:07.225Z,14.36
2018-09-18T00:24:07.182Z,14.37
2018-09-18T00:25:07.137Z,14.43
2018-09-18T00:26:07.093Z,14.38
2018-09-18T00:27:07.046Z,14.49
2018-09-18T00:28:07.003Z,14.61
2018-09-18T00:29:06.960Z,14.74
2018-09-18T00:30:06.918Z,14.68
2018-09-18T00:31:06.871Z,14.89
2018-09-18T00:32:06.828Z,14.85
2018-09-18T00:33:06.782Z,14.96
2018-09-18T00:34:06.738Z,15.04
2018-09-18T00:35:06.693Z,15.05
2018-09-18T00:36:06.649Z,15.17
2018-09-18T00:37:06.611Z,15.30
2018-09-18T00:38:06.569Z,15.30
2018-09-18T00:39:06.547Z,15.36
2018-09-18T00:40:06.504Z,15.51
2018-09-18T00:41:06.466Z,15.48
2018-09-18T00:42:06.388Z,15.60
2018-09-18T00:43:06.341Z,15.62
2018-09-18T00:44:06.300Z,15.66
2018-09-18T00:45:06.257Z,15.75
2018-09-18T00:46:06.211Z,15.83
2018-09-18T00:47:06.167Z,15.80
2018-09-18T00:48:06.123Z,15.80
2018-09-18T00:49:06.083Z,15.92
2018-09-18T00:50:06.037Z,15.94
2018-09-18T00:51:05.997Z,16.06
2018-09-18T00:52:05.949Z,16.28
2018-09-18T00:53:05.908Z,16.31
2018-09-18T00:54:05.861Z,16.25
2018-09-18T00:55:05.817Z,16.34
2018-09-18T00:56:05.775Z,16.43
2018-09-18T00:57:05.735Z,16.49
2018-09-18T00:58:05.694Z,16.61
2018-09-18T00:59:05.642Z,16.62
2018-09-18T01:00:05.601Z,16.68
2018-09-18T01:01:05.566Z,16.76
2018-09-18T01:02:05.511Z,16.86
2018-09-18T01:03:05.471Z,16.80
2018-09-18T01:04:05.428Z,16.91
2018-09-18T01:05:05.384Z,16.89
2018-09-18T01:06:05.346Z,16.97
2018-09-18T01:07:05.297Z,17.09
2018-09-18T01:08:05.258Z,17.12
2018-09-18T01:09:05.209Z,17.19
2018-09-18T01:10:05.171Z,17.16
2018-09-18T01:11:05.121Z,17.22
2018-09-18T01:12:05.078Z,17.24
2018-09-18T01:13:05.036Z,17.24
2018-09-18T01:14:04.994Z,17.32
2018-09-18T01:15:04.949Z,17.24
2018-09-18T01:16:04.906Z,17.27
2018-09-18T01:17:04.868Z,17.39
2018-09-18T01:18:04.820Z,17.39
2018-09-18T01:19:04.775Z,17.39
2018-09-18T01:20:04.734Z,17.53
2018-09-18T01:21:04.689Z,17.54
2018-09-18T01:22:04.648Z,17.54
2018-09-18T01:23:04.611Z,17.66
2018-09-18T01:24:04.561Z,17.56
2018-09-18T01:25:04.519Z,17.69
2018-09-18T01:26:04.476Z,17.82
2018-09-18T01:27:04.432Z,17.87
2018-09-18T01:28:04.392Z,17.94
2018-09-18T01:29:04.355Z,17.98
2018-09-18T01:30:04.303Z,18.09
2018-09-18T01:31:04.259Z,18.08
2018-09-18T01:32:04.216Z,18.00
2018-09-18T01:33:04.176Z,18.06
2018-09-18T01:34:04.132Z,18.13
2018-09-18T01:35:04.090Z,18.18
2018-09-18T01:36:04.048Z,18.26
2018-09-18T01:37:04.011Z,18.26
2018-09-18T01:38:03.963Z,18.33
2018-09-18T01:39:03.920Z,18.26
2018-09-18T01:40:03.878Z,18.28
2018-09-18T01:41:03.833Z,18.27
2018-09-18T01:42:03.792Z,18.23
2018-09-18T01:43:03.749Z,18.30
2018-09-18T01:44:03.706Z,18.34
2018-09-18T01:45:03.663Z,18.36
2018-09-18T01:46:03.619Z,18.43
2018-09-18T01:47:03.578Z,18.39
2018-09-18T01:48:03.538Z,18.37
2018-09-18T01:49:03.492Z,18.43
2018-09-18T01:50:03.447Z,18.33
2018-09-18T01:51:03.403Z,18.42
2018-09-18T01:52:03.363Z,18.42
2018-09-18T01:53:03.317Z,18.41
2018-09-18T01:54:03.277Z,18.37
2018-09-18T01:55:03.235Z,18.41
2018-09-18T01:56:03.189Z,18.36
2018-09-18T01:57:03.153Z,18.30
2018-09-18T01:58:03.108Z,18.39
2018-09-18T01:59:03.061Z,18.39
2018-09-18T02:00:03.022Z,18.41
2018-09-18T02:01:02.978Z,18.37
2018-09-18T02:02:02.937Z,18.36
2018-09-18T02:03:02.893Z,18.43
2018-09-18T02:04:02.853Z,18.36
2018-09-18T02:05:02.808Z,18.41
2018-09-18T02:06:02.766Z,18.39
2018-09-18T02:07:02.740Z,18.42
2018-09-18T02:08:02.688Z,18.46
2018-09-18T02:09:02.649Z,18.42
2018-09-18T02:10:02.601Z,18.49
2018-09-18T02:11:02.554Z,18.43
2018-09-18T02:12:02.513Z,18.45
2018-09-18T02:13:02.469Z,18.46
2018-09-18T02:14:02.428Z,18.48
2018-09-18T02:15:02.380Z,18.46
2018-09-18T02:16:02.338Z,18.58
2018-09-18T02:17:02.302Z,18.55
2018-09-18T02:18:02.255Z,18.52
2018-09-18T02:19:02.210Z,18.43
2018-09-18T02:20:02.169Z,18.60
2018-09-18T02:21:02.130Z,18.61
2018-09-18T02:22:02.085Z,18.58
2018-09-18T02:23:02.042Z,18.46
2018-09-18T02:24:01.998Z,18.51
2018-09-18T02:25:01.955Z,18.42
2018-09-18T02:26:01.914Z,18.53
2018-09-18T02:27:01.869Z,18.48
2018-09-18T02:28:01.829Z,18.58
2018-09-18T02:29:01.786Z,18.55
2018-09-18T02:30:01.760Z,18.46
2018-09-18T02:31:01.710Z,18.45
2018-09-18T02:32:01.658Z,18.60
2018-09-18T02:33:01.620Z,18.49
2018-09-18T02:34:01.581Z,18.55
2018-09-18T02:35:01.529Z,18.55
2018-09-18T02:36:01.489Z,18.53
2018-09-18T02:37:01.454Z,18.46
2018-09-18T02:38:01.403Z,18.51
2018-09-18T02:39:01.365Z,18.43
2018-09-18T02:40:01.321Z,18.46
2018-09-18T02:41:01.277Z,18.43
2018-09-18T02:42:01.238Z,18.43
2018-09-18T02:43:01.193Z,18.57
2018-09-18T02:44:01.149Z,18.53
2018-09-18T02:45:01.117Z,18.63
2018-09-18T02:46:01.065Z,18.52
2018-09-18T02:47:01.019Z,18.61
2018-09-18T02:48:00.978Z,18.64
2018-09-18T02:49:00.938Z,18.60
2018-09-18T02:50:00.897Z,18.61
2018-09-18T02:51:00.851Z,18.53
2018-09-18T02:52:00.808Z,18.61
2018-09-18T02:53:00.763Z,18.53
2018-09-18T02:54:00.722Z,18.60
2018-09-18T02:55:00.680Z,18.61
2018-09-18T02:56:00.639Z,18.66
2018-09-18T02:57:00.594Z,18.68
2018-09-18T02:58:00.555Z,18.73
2018-09-18T02:59:00.510Z,18.64
2018-09-18T03:00:00.471Z,18.66
2018-09-18T03:01:00.426Z,18.66
2018-09-18T03:02:00.384Z,18.58
2018-09-18T03:03:00.341Z,18.66
2018-09-18T03:04:00.300Z,18.61
2018-09-18T03:05:00.255Z,18.61
2018-09-18T03:06:00.217Z,18.57
2018-09-18T03:07:00.173Z,18.64
2018-09-18T03:08:00.129Z,18.71
2018-09-18T03:09:00.086Z,18.73
2018-09-18T03:10:00.052Z,18.71
2018-09-18T03:10:59.999Z,18.68
2018-09-18T03:11:59.960Z,18.79
2018-09-18T03:12:59.915Z,18.74
2018-09-18T03:13:59.873Z,18.79
2018-09-18T03:14:59.831Z,18.79
2018-09-18T03:15:59.793Z,18.81
2018-09-18T03:16:59.750Z,18.83
2018-09-18T03:17:59.705Z,18.79
2018-09-18T03:18:59.669Z,18.96
2018-09-18T03:19:59.623Z,18.97
2018-09-18T03:20:59.635Z,18.96
2018-09-18T03:21:59.534Z,18.82
2018-09-18T03:22:59.490Z,18.89
2018-09-18T03:23:59.449Z,18.85
2018-09-18T03:24:59.409Z,18.91
2018-09-18T03:25:59.367Z,18.96
2018-09-18T03:26:59.326Z,18.85
2018-09-18T03:27:59.278Z,18.85
2018-09-18T03:28:59.240Z,18.91
2018-09-18T03:29:59.198Z,18.89
2018-09-18T03:30:59.168Z,18.86
2018-09-18T03:31:59.110Z,18.81
2018-09-18T03:32:59.067Z,18.86
2018-09-18T03:33:59.023Z,18.85
2018-09-18T03:34:58.982Z,18.97
2018-09-18T03:35:58.938Z,18.94
2018-09-18T03:36:58.897Z,18.92
2018-09-18T03:37:58.856Z,18.96
2018-09-18T03:38:58.811Z,19.04
2018-09-18T03:39:58.774Z,19.01
2018-09-18T03:40:58.729Z,19.04
2018-09-18T03:41:58.691Z,19.11
2018-09-18T03:42:58.647Z,19.00
2018-09-18T03:43:58.603Z,19.16
2018-09-18T03:44:58.562Z,19.04
2018-09-18T03:45:58.515Z,19.00
2018-09-18T03:46:58.476Z,19.07
2018-09-18T03:47:58.431Z,19.00
2018-09-18T03:48:58.390Z,19.08
2018-09-18T03:49:58.348Z,19.16
2018-09-18T03:50:58.322Z,19.12
2018-09-18T03:51:58.264Z,19.17
2018-09-18T03:52:58.221Z,19.19
2018-09-18T03:53:58.183Z,19.19
2018-09-18T03:54:58.133Z,19.27
2018-09-18T03:55:58.093Z,19.27
2018-09-18T03:56:58.051Z,19.20
2018-09-18T03:57:58.006Z,19.29
2018-09-18T03:58:57.962Z,19.30
2018-09-18T03:59:57.920Z,19.34
2018-09-18T04:00:57.884Z,19.37
2018-09-18T04:01:57.839Z,19.35
2018-09-18T04:02:57.901Z,19.39
2018-09-18T04:03:57.753Z,19.37
2018-09-18T04:04:57.716Z,19.38
2018-09-18T04:05:57.667Z,19.47
2018-09-18T04:06:57.625Z,19.45
2018-09-18T04:07:57.590Z,19.49
2018-09-18T04:08:57.541Z,19.55
2018-09-18T04:09:57.499Z,19.53
2018-09-18T04:10:57.459Z,19.57
2018-09-18T04:11:57.413Z,19.52
2018-09-18T04:12:57.375Z,19.56
2018-09-18T04:13:57.338Z,19.56
2018-09-18T04:14:57.288Z,19.53
2018-09-18T04:15:57.258Z,19.59
2018-09-18T04:16:57.209Z,19.67
2018-09-18T04:17:57.171Z,19.64
2018-09-18T04:18:57.122Z,19.57
2018-09-18T04:19:57.077Z,19.67
2018-09-18T04:20:57.034Z,19.67
2018-09-18T04:21:56.995Z,19.62
2018-09-18T04:22:56.960Z,19.67
2018-09-18T04:23:56.907Z,19.77
2018-09-18T04:24:56.865Z,19.63
2018-09-18T04:25:56.825Z,19.71
2018-09-18T04:26:56.783Z,19.75
2018-09-18T04:27:56.742Z,19.70
2018-09-18T04:28:56.696Z,19.75
2018-09-18T04:29:56.653Z,19.75
2018-09-18T04:30:56.612Z,19.66
2018-09-18T04:31:56.574Z,19.66
2018-09-18T04:32:56.528Z,19.77
2018-09-18T04:33:56.488Z,19.72
2018-09-18T04:34:56.444Z,19.70
2018-09-18T04:35:56.401Z,19.72
2018-09-18T04:36:56.362Z,19.75
2018-09-18T04:37:56.318Z,19.67
2018-09-18T04:38:56.274Z,19.64
2018-09-18T04:39:56.235Z,19.67
2018-09-18T04:40:56.204Z,19.70
2018-09-18T04:41:56.150Z,19.67
2018-09-18T04:42:56.108Z,19.62
2018-09-18T04:43:56.065Z,19.67
2018-09-18T04:44:56.021Z,19.75
2018-09-18T04:45:56.057Z,19.72
2018-09-18T04:46:55.940Z,19.74
2018-09-18T04:47:55.896Z,19.74
2018-09-18T04:48:55.852Z,19.71
2018-09-18T04:49:55.817Z,19.74
2018-09-18T04:50:55.767Z,19.71
2018-09-18T04:51:55.725Z,19.78
2018-09-18T04:52:55.696Z,19.78
2018-09-18T04:53:55.644Z,19.74
2018-09-18T04:54:55.618Z,19.71
2018-09-18T04:55:55.557Z,19.79
2018-09-18T04:56:55.531Z,19.79
2018-09-18T04:57:55.478Z,19.77
2018-09-18T04:58:55.435Z,19.82
2018-09-18T04:59:55.393Z,19.82
2018-09-18T05:00:55.348Z,19.82
2018-09-18T05:01:55.324Z,19.89
2018-09-18T05:02:55.264Z,19.87
2018-09-18T05:03:55.220Z,19.89
2018-09-18T05:04:55.194Z,19.93
2018-09-18T05:05:55.140Z,19.97
2018-09-18T05:06:55.096Z,19.96
2018-09-18T05:07:55.053Z,20.03
2018-09-18T05:08:55.020Z,19.92
2018-09-18T05:09:54.977Z,19.97
2018-09-18T05:10:54.931Z,20.00
2018-09-18T05:11:54.886Z,19.97
2018-09-18T05:12:54.842Z,20.02
2018-09-18T05:13:54.868Z,19.97
2018-09-18T05:14:54.759Z,19.94
2018-09-18T05:15:54.717Z,20.02
2018-09-18T05:16:54.675Z,19.97
2018-09-18T05:17:54.635Z,20.10
2018-09-18T05:18:54.592Z,20.03
2018-09-18T05:19:54.547Z,20.08
2018-09-18T05:20:54.509Z,20.04
2018-09-18T05:21:54.463Z,20.15
2018-09-18T05:22:54.420Z,20.11
2018-09-18T05:23:54.379Z,20.08
2018-09-18T05:24:54.338Z,20.08
2018-09-18T05:25:54.304Z,20.17
2018-09-18T05:26:54.253Z,20.08
2018-09-18T05:27:54.222Z,20.10
2018-09-18T05:28:54.171Z,20.11
2018-09-18T05:29:54.127Z,20.08
2018-09-18T05:30:54.085Z,20.11
2018-09-18T05:31:54.044Z,20.07
2018-09-18T05:32:54.001Z,20.07
2018-09-18T05:33:53.961Z,20.11
2018-09-18T05:34:53.916Z,20.08
2018-09-18T05:35:53.878Z,20.11
2018-09-18T05:36:53.837Z,20.17
2018-09-18T05:37:53.791Z,20.14
2018-09-18T05:38:53.752Z,20.14
2018-09-18T05:39:53.709Z,20.10
2018-09-18T05:40:53.667Z,20.22
2018-09-18T05:41:53.626Z,20.17
2018-09-18T05:42:53.581Z,20.19
2018-09-18T05:43:53.542Z,20.19
2018-09-18T05:44:53.500Z,20.24
2018-09-18T05:45:53.456Z,20.11
2018-09-18T05:46:53.413Z,20.21
2018-09-18T05:47:53.370Z,20.19
2018-09-18T05:48:53.331Z,20.21
2018-09-18T05:50:53.263Z,20.21
2018-09-18T05:51:53.203Z,20.21
2018-09-18T05:52:53.162Z,20.17
2018-09-18T05:53:53.121Z,20.24
2018-09-18T05:54:53.184Z,20.33
2018-09-18T05:55:53.036Z,20.26
2018-09-18T05:56:52.994Z,20.34
2018-09-18T05:57:52.954Z,20.33
2018-09-18T05:58:52.909Z,20.27
2018-09-18T05:59:52.867Z,20.36
2018-09-18T06:00:52.831Z,20.33
2018-09-18T06:01:52.790Z,20.37
2018-09-18T06:02:52.750Z,20.33
2018-09-18T06:03:52.700Z,20.33
2018-09-18T06:04:52.657Z,20.42
2018-09-18T06:05:52.619Z,20.46
2018-09-18T06:06:52.574Z,20.37
2018-09-18T06:07:52.532Z,20.42
2018-09-18T06:08:52.500Z,20.42
2018-09-18T06:09:52.452Z,20.50
2018-09-18T06:10:52.407Z,20.48
2018-09-18T06:11:52.365Z,20.48
2018-09-18T06:12:52.325Z,20.58
2018-09-18T06:13:52.282Z,20.55
2018-09-18T06:14:52.239Z,20.52
2018-09-18T06:15:52.197Z,20.55
2018-09-18T06:16:52.157Z,20.53
2018-09-18T06:17:52.117Z,20.56
2018-09-18T06:18:52.105Z,20.68
2018-09-18T06:19:52.034Z,20.67
2018-09-18T06:20:51.989Z,20.71
2018-09-18T06:21:51.946Z,20.68
2018-09-18T06:22:51.905Z,20.73
2018-09-18T06:23:51.863Z,20.78
2018-09-18T06:24:51.821Z,20.85
2018-09-18T06:25:51.779Z,20.88
2018-09-18T06:26:51.738Z,20.83
2018-09-18T06:27:51.696Z,21.00
2018-09-18T06:28:51.654Z,21.01
2018-09-18T06:29:51.614Z,20.98
2018-09-18T06:30:51.569Z,21.00
2018-09-18T06:31:51.529Z,21.08
2018-09-18T06:32:51.525Z,21.05
2018-09-18T06:33:51.458Z,21.15
2018-09-18T06:34:51.431Z,21.14
2018-09-18T06:35:51.384Z,21.15
2018-09-18T06:36:51.349Z,21.26
2018-09-18T06:37:51.280Z,21.23
2018-09-18T06:38:51.238Z,21.29
2018-09-18T06:39:51.196Z,21.32
2018-09-18T06:40:51.155Z,21.29
2018-09-18T06:41:51.114Z,21.38
2018-09-18T06:42:51.075Z,21.40
2018-09-18T06:43:51.033Z,21.53
2018-09-18T06:44:50.987Z,21.50
2018-09-18T06:45:51.075Z,21.58
2018-09-18T06:46:50.904Z,21.66
2018-09-18T06:47:50.928Z,21.63
2018-09-18T06:48:50.840Z,21.81
2018-09-18T06:49:50.782Z,21.89
2018-09-18T06:50:50.739Z,22.06
2018-09-18T06:51:50.696Z,22.12
2018-09-18T06:52:50.657Z,22.22
2018-09-18T06:53:50.617Z,22.34
2018-09-18T06:54:50.576Z,22.49
2018-09-18T06:55:50.535Z,22.62
2018-09-18T06:56:50.496Z,22.74
2018-09-18T06:57:50.457Z,22.89
2018-09-18T06:58:50.412Z,23.02
2018-09-18T06:59:50.370Z,23.11
2018-09-18T07:00:50.330Z,23.17
2018-09-18T07:01:50.290Z,23.26
2018-09-18T07:02:50.247Z,23.39
2018-09-18T07:03:50.205Z,23.42
2018-09-18T07:04:50.165Z,23.55
2018-09-18T07:05:50.124Z,23.63
2018-09-18T07:06:50.092Z,23.73
2018-09-18T07:07:50.044Z,23.85
2018-09-18T07:08:50.008Z,23.85
2018-09-18T07:09:49.963Z,23.94
2018-09-18T07:10:49.922Z,24.06
2018-09-18T07:11:49.883Z,24.16
2018-09-18T07:12:49.843Z,24.22
2018-09-18T07:13:49.802Z,24.25
2018-09-18T07:14:49.763Z,24.25
2018-09-18T07:15:49.720Z,24.36
2018-09-18T07:16:49.681Z,24.46
2018-09-18T07:17:49.644Z,24.56
2018-09-18T07:18:49.599Z,24.62
2018-09-18T07:19:49.561Z,24.81
2018-09-18T07:20:49.525Z,24.85
2018-09-18T07:21:49.488Z,24.99
2018-09-18T07:22:49.444Z,24.97
2018-09-18T07:23:49.402Z,25.03
2018-09-18T07:24:49.425Z,25.19
2018-09-18T07:25:49.326Z,25.26
2018-09-18T07:26:49.280Z,25.36
2018-09-18T07:27:49.251Z,25.56
2018-09-18T07:28:49.203Z,25.70
2018-09-18T07:29:49.162Z,25.76
2018-09-18T07:30:49.123Z,25.91
2018-09-18T07:31:49.085Z,26.03
2018-09-18T07:32:49.044Z,26.24
2018-09-18T07:33:49.061Z,26.27
2018-09-18T07:34:48.964Z,26.41
2018-09-18T07:35:48.927Z,26.49
2018-09-18T07:36:48.886Z,26.63
2018-09-18T07:37:48.850Z,26.74
2018-09-18T07:38:48.805Z,26.96
2018-09-18T07:39:48.767Z,27.07
2018-09-18T07:40:48.726Z,27.13
2018-09-18T07:41:48.689Z,27.26
2018-09-18T07:42:48.653Z,27.40
2018-09-18T07:43:48.609Z,27.43
2018-09-18T07:44:48.573Z,27.60
2018-09-18T07:45:48.531Z,27.68
2018-09-18T07:46:48.490Z,27.79
2018-09-18T07:47:48.452Z,27.90
2018-09-18T07:48:48.413Z,27.93
2018-09-18T07:49:48.372Z,27.85
2018-09-18T07:50:48.334Z,27.94
2018-09-18T07:51:48.303Z,27.94
2018-09-18T07:52:48.257Z,28.03
2018-09-18T07:53:48.216Z,28.20
2018-09-18T07:54:48.178Z,28.13
2018-09-18T07:55:48.138Z,28.20
2018-09-18T07:56:48.102Z,28.31
2018-09-18T07:57:48.062Z,28.30
2018-09-18T07:58:48.022Z,28.35
2018-09-18T07:59:47.982Z,28.38
2018-09-18T08:00:47.945Z,28.40
2018-09-18T08:01:47.907Z,28.37
2018-09-18T08:02:47.866Z,28.45
2018-09-18T08:03:47.828Z,28.45
2018-09-18T08:04:47.789Z,28.49
2018-09-18T08:05:47.754Z,28.43
2018-09-18T08:06:47.716Z,28.47
2018-09-18T08:07:47.673Z,28.49
2018-09-18T08:08:47.637Z,28.37
2018-09-18T08:09:47.600Z,28.37
2018-09-18T08:10:47.611Z,28.47
2018-09-18T08:11:47.517Z,28.33
2018-09-18T08:12:47.481Z,28.41
2018-09-18T08:13:47.446Z,28.40
2018-09-18T08:14:47.413Z,28.37
2018-09-18T08:15:47.365Z,28.34
2018-09-18T08:16:47.327Z,28.38
2018-09-18T08:17:47.290Z,28.38
2018-09-18T08:18:47.257Z,28.38
2018-09-18T08:19:47.389Z,28.40
2018-09-18T08:20:47.180Z,28.55
2018-09-18T08:21:47.137Z,28.53
2018-09-18T08:22:47.096Z,28.57
2018-09-18T08:23:47.063Z,28.53
2018-09-18T08:24:47.026Z,28.67
2018-09-18T08:25:47.136Z,28.57
2018-09-18T08:26:46.945Z,28.60
2018-09-18T08:27:46.909Z,28.59
2018-09-18T08:28:46.872Z,28.71
2018-09-18T08:29:46.844Z,28.70
2018-09-18T08:30:46.796Z,28.77
2018-09-18T08:31:46.762Z,28.78
2018-09-18T08:32:46.751Z,28.92
2018-09-18T08:33:46.690Z,28.90
2018-09-18T08:34:46.649Z,28.90
2018-09-18T08:35:46.610Z,29.00
2018-09-18T08:36:46.580Z,28.97
2018-09-18T08:37:46.536Z,29.05
2018-09-18T08:38:46.500Z,29.12
2018-09-18T08:39:46.582Z,29.06
2018-09-18T08:40:46.430Z,29.03
2018-09-18T08:41:46.390Z,29.13
2018-09-18T08:42:46.352Z,29.13
2018-09-18T08:43:46.336Z,29.05
2018-09-18T08:44:46.301Z,29.12
2018-09-18T08:45:46.244Z,29.22
2018-09-18T08:46:46.205Z,29.25
2018-09-18T08:47:46.171Z,29.32
2018-09-18T08:48:46.156Z,29.34
2018-09-18T08:49:46.111Z,29.40
2018-09-18T08:50:46.084Z,29.49
2018-09-18T08:51:46.027Z,29.57
2018-09-18T08:52:46.016Z,29.55
2018-09-18T08:53:45.952Z,29.53
2018-09-18T08:54:45.949Z,29.61
2018-09-18T08:55:45.907Z,29.73
2018-09-18T08:56:45.855Z,29.73
2018-09-18T08:57:45.803Z,29.83
2018-09-18T08:58:45.769Z,29.92
2018-09-18T08:59:45.737Z,29.90
2018-09-18T09:00:45.696Z,29.96
2018-09-18T09:01:45.661Z,30.05
2018-09-18T09:02:45.623Z,30.13
2018-09-18T09:03:45.590Z,30.23
2018-09-18T09:04:45.597Z,30.11
2018-09-18T09:05:45.513Z,30.21
2018-09-18T09:06:45.476Z,30.33
2018-09-18T09:07:45.552Z,30.29
2018-09-18T09:08:45.510Z,30.39
2018-09-18T09:09:45.374Z,30.38
2018-09-18T09:10:45.332Z,30.36
2018-09-18T09:11:45.324Z,30.43
2018-09-18T09:12:45.256Z,30.40
2018-09-18T09:13:45.241Z,30.48
2018-09-18T09:14:45.246Z,30.55
2018-09-18T09:15:45.161Z,30.56
2018-09-18T09:16:45.114Z,30.62
2018-09-18T09:17:45.083Z,30.59
2018-09-18T09:18:45.063Z,30.73
2018-09-18T09:19:45.004Z,30.65
2018-09-18T09:20:44.974Z,30.65
2018-09-18T09:21:44.997Z,30.65
2018-09-18T09:22:44.957Z,30.69
2018-09-18T09:23:44.867Z,30.65
2018-09-18T09:24:44.819Z,30.67
2018-09-18T09:25:44.784Z,30.73
2018-09-18T09:26:44.833Z,30.65
2018-09-18T09:27:44.726Z,30.67
2018-09-18T09:28:44.674Z,30.61
2018-09-18T09:29:44.763Z,30.63
2018-09-18T09:30:44.600Z,30.69
2018-09-18T09:31:44.565Z,30.62
2018-09-18T09:32:44.539Z,30.67
2018-09-18T09:33:44.498Z,30.69
2018-09-18T09:34:44.455Z,30.70
2018-09-18T09:35:44.421Z,30.70
2018-09-18T09:36:44.437Z,30.73
2018-09-18T09:37:44.349Z,30.73
2018-09-18T09:38:44.320Z,30.81
2018-09-18T09:39:44.272Z,30.83
2018-09-18T09:40:44.237Z,30.77
2018-09-18T09:41:44.200Z,30.78
2018-09-18T09:42:44.163Z,30.89
2018-09-18T09:43:44.199Z,30.93
2018-09-18T09:44:44.091Z,30.91
2018-09-18T09:45:44.058Z,30.88
2018-09-18T09:46:44.017Z,30.95
2018-09-18T09:47:43.983Z,31.00
2018-09-18T09:48:43.946Z,30.95
2018-09-18T09:49:43.911Z,30.92
2018-09-18T09:50:43.871Z,30.99
2018-09-18T09:51:43.839Z,31.04
2018-09-18T09:52:43.800Z,31.05
2018-09-18T09:53:43.765Z,31.04
2018-09-18T09:54:43.729Z,31.11
2018-09-18T09:55:43.695Z,31.17
2018-09-18T09:56:43.662Z,31.08
2018-09-18T09:57:43.619Z,31.10
2018-09-18T09:58:43.580Z,31.15
2018-09-18T09:59:43.546Z,31.13
2018-09-18T10:00:43.510Z,31.20
2018-09-18T10:01:43.475Z,31.32
2018-09-18T10:02:43.451Z,31.28
2018-09-18T10:03:43.402Z,31.29
2018-09-18T10:04:43.366Z,31.33
2018-09-18T10:05:43.334Z,31.32
2018-09-18T10:06:43.293Z,31.30
2018-09-18T10:07:43.283Z,31.36
2018-09-18T10:08:43.220Z,31.42
2018-09-18T10:09:43.189Z,31.33
2018-09-18T10:10:43.273Z,31.36
2018-09-18T10:11:43.112Z,31.36
2018-09-18T10:12:43.078Z,31.36
2018-09-18T10:13:43.061Z,31.41
2018-09-18T10:14:43.035Z,31.36
2018-09-18T10:15:43.000Z,31.37
2018-09-18T10:16:42.939Z,31.48
2018-09-18T10:17:42.922Z,31.45
2018-09-18T10:18:42.860Z,31.50
2018-09-18T10:19:42.824Z,31.51
2018-09-18T10:20:42.788Z,31.39
2018-09-18T10:21:42.751Z,31.48
2018-09-18T10:22:42.718Z,31.54
2018-09-18T10:23:42.687Z,31.54
2018-09-18T10:24:42.649Z,31.64
2018-09-18T10:25:42.608Z,31.55
2018-09-18T10:26:42.622Z,31.55
2018-09-18T10:27:42.561Z,31.55
2018-09-18T10:28:42.618Z,31.62
2018-09-18T10:29:42.486Z,31.54
2018-09-18T10:30:42.453Z,31.60
2018-09-18T10:31:42.395Z,31.59
2018-09-18T10:32:42.412Z,31.60
2018-09-18T10:33:42.319Z,31.54
2018-09-18T10:34:42.283Z,31.60
2018-09-18T10:35:42.274Z,31.60
2018-09-18T10:36:42.239Z,31.57
2018-09-18T10:37:42.180Z,31.55
2018-09-18T10:38:42.138Z,31.54
2018-09-18T10:39:42.117Z,31.67
2018-09-18T10:40:42.074Z,31.57
2018-09-18T10:41:42.084Z,31.69
2018-09-18T10:42:41.997Z,31.70
2018-09-18T10:43:41.984Z,31.69
2018-09-18T10:44:41.938Z,31.73
2018-09-18T10:45:41.902Z,31.74
2018-09-18T10:46:41.871Z,31.74
2018-09-18T10:47:41.831Z,31.79
2018-09-18T10:48:41.801Z,31.82
2018-09-18T10:49:41.745Z,31.85
2018-09-18T10:50:41.712Z,31.81
2018-09-18T10:51:41.676Z,31.86
2018-09-18T10:52:41.637Z,31.90
2018-09-18T10:53:41.600Z,31.86
2018-09-18T10:54:41.564Z,31.89
2018-09-18T10:55:41.531Z,31.90
2018-09-18T10:56:41.497Z,31.90
2018-09-18T10:57:41.456Z,31.90
2018-09-18T10:58:41.421Z,31.87
2018-09-18T10:59:41.387Z,31.89
2018-09-18T11:00:41.371Z,31.90
2018-09-18T11:01:41.312Z,31.95
2018-09-18T11:02:41.280Z,32.01
2018-09-18T11:03:41.272Z,31.98
2018-09-18T11:04:41.220Z,31.86
2018-09-18T11:05:41.172Z,32.01
2018-09-18T11:06:41.143Z,31.89
2018-09-18T11:07:41.138Z,31.97
2018-09-18T11:08:41.062Z,31.98
2018-09-18T11:09:41.105Z,31.98
2018-09-18T11:10:40.993Z,31.90
2018-09-18T11:11:40.984Z,31.92
2018-09-18T11:12:40.917Z,31.97
2018-09-18T11:13:40.892Z,31.98
2018-09-18T11:14:40.884Z,31.93
2018-09-18T11:15:40.814Z,31.98
2018-09-18T11:16:40.791Z,32.00
2018-09-18T11:17:40.746Z,31.98
2018-09-18T11:18:40.725Z,31.98
2018-09-18T11:19:40.752Z,31.93
2018-09-18T11:20:40.635Z,32.02
2018-09-18T11:21:40.655Z,31.93
2018-09-18T11:22:40.567Z,31.89
2018-09-18T11:23:40.645Z,32.04
2018-09-18T11:24:40.501Z,32.05
2018-09-18T11:25:40.459Z,32.02
2018-09-18T11:26:40.417Z,32.04
2018-09-18T11:27:40.399Z,32.09
2018-09-18T11:28:40.382Z,32.09
2018-09-18T11:29:40.309Z,32.09
2018-09-18T11:30:40.276Z,32.09
2018-09-18T11:31:40.284Z,32.07
2018-09-18T11:32:40.205Z,32.11
2018-09-18T11:33:40.167Z,31.98
2018-09-18T11:34:40.130Z,31.98
2018-09-18T11:35:40.095Z,31.95
2018-09-18T11:36:40.061Z,32.02
2018-09-18T11:37:40.024Z,31.87
2018-09-18T11:38:39.987Z,31.85
2018-09-18T11:39:39.953Z,31.86
2018-09-18T11:40:39.918Z,31.78
2018-09-18T11:41:39.881Z,31.70
2018-09-18T11:42:39.843Z,31.69
2018-09-18T11:43:39.808Z,31.55
2018-09-18T11:44:39.772Z,31.60
2018-09-18T11:45:39.831Z,31.57
2018-09-18T11:46:39.775Z,31.64
2018-09-18T11:47:39.663Z,31.69
2018-09-18T11:48:39.629Z,31.67
2018-09-18T11:49:40.197Z,31.67
2018-09-18T11:50:39.556Z,31.81
2018-09-18T11:51:39.523Z,31.85
2018-09-18T11:52:39.492Z,31.86
2018-09-18T11:53:39.454Z,31.95
2018-09-18T11:54:39.414Z,31.98
2018-09-18T11:55:39.377Z,31.97
2018-09-18T11:56:39.357Z,32.00
2018-09-18T11:57:39.304Z,32.16
2018-09-18T11:58:39.270Z,32.19
2018-09-18T11:59:39.234Z,32.22
2018-09-18T12:00:39.202Z,32.35
2018-09-18T12:01:39.163Z,32.42
2018-09-18T12:02:39.138Z,32.67
2018-09-18T12:03:39.096Z,32.75
2018-09-18T12:04:39.118Z,32.91
2018-09-18T12:05:39.023Z,32.90
2018-09-18T12:06:38.986Z,33.10
2018-09-18T12:07:38.950Z,33.22
2018-09-18T12:08:38.921Z,33.32
2018-09-18T12:09:38.879Z,33.51
2018-09-18T12:10:38.844Z,33.65
2018-09-18T12:11:38.811Z,34.38
2018-09-18T12:12:38.774Z,35.19
2018-09-18T12:13:38.741Z,35.78
2018-09-18T12:14:38.703Z,36.41
2018-09-18T12:15:38.669Z,36.76
2018-09-18T12:16:38.636Z,37.18
2018-09-18T12:17:38.603Z,37.54
2018-09-18T12:18:38.569Z,37.80
2018-09-18T12:19:38.531Z,38.01
2018-09-18T12:20:38.497Z,38.23
2018-09-18T12:21:38.464Z,38.41
2018-09-18T12:22:38.464Z,38.44
2018-09-18T12:23:38.394Z,38.54
2018-09-18T12:24:38.364Z,38.73
2018-09-18T12:25:38.327Z,38.90
2018-09-18T12:26:38.294Z,38.96
2018-09-18T12:27:38.310Z,39.00
2018-09-18T12:28:38.289Z,39.07
2018-09-18T12:29:38.193Z,39.03
2018-09-18T12:30:38.162Z,38.56
2018-09-18T12:31:38.127Z,37.90
2018-09-18T12:32:38.093Z,37.21
2018-09-18T12:33:38.063Z,36.51
2018-09-18T12:34:38.028Z,36.06
2018-09-18T12:35:38.059Z,35.82
2018-09-18T12:36:37.962Z,35.52
2018-09-18T12:37:37.928Z,35.13
2018-09-18T12:38:37.892Z,34.76
2018-09-18T12:39:37.860Z,34.44
2018-09-18T12:40:37.827Z,34.37
2018-09-18T12:41:38.016Z,34.10
2018-09-18T12:42:37.826Z,33.85
2018-09-18T12:43:37.729Z,33.65
2018-09-18T12:44:37.690Z,33.36
2018-09-18T12:45:37.659Z,33.23
2018-09-18T12:46:37.637Z,33.12
2018-09-18T12:47:37.589Z,32.97
2018-09-18T12:48:37.589Z,32.86
2018-09-18T12:49:37.641Z,32.79
2018-09-18T12:50:40.625Z,32.64
2018-09-18T12:51:37.449Z,32.51
2018-09-18T12:52:37.417Z,32.35